createdAt,value
2022-10-04T00:04:40.905Z,100.00
2022-10-04T00:09:50.919Z,100.00
2022-10-04T00:14:57.774Z,100.00
2022-10-04T00:20:01.813Z,100.00
2022-10-04T00:25:07.785Z,100.00
2022-10-04T00:30:23.827Z,100.00
2022-10-04T00:35:26.597Z,100.00
2022-10-04T00:40:36.052Z,100.00
2022-10-04T00:45:43.607Z,100.00
2022-10-04T00:50:56.809Z,100.00
2022-10-04T00:56:03.709Z,100.00
2022-10-04T01:01:07.154Z,100.00
2022-10-04T01:06:12.075Z,100.00
2022-10-04T01:11:25.630Z,100.00
2022-10-04T01:16:33.599Z,100.00
2022-10-04T01:21:39.423Z,100.00
2022-10-04T01:26:44.991Z,100.00
2022-10-04T01:31:53.576Z,100.00
2022-10-04T01:36:59.962Z,100.00
2022-10-04T01:42:06.199Z,100.00
2022-10-04T01:47:16.684Z,100.00
2022-10-04T01:52:24.193Z,100.00
2022-10-04T01:57:42.867Z,100.00
2022-10-04T02:02:51.692Z,100.00
2022-10-04T02:07:56.558Z,100.00
2022-10-04T02:13:01.101Z,100.00
2022-10-04T02:18:06.514Z,100.00
2022-10-04T02:23:11.421Z,100.00
2022-10-04T02:28:16.930Z,100.00
2022-10-04T02:33:20.195Z,100.00
2022-10-04T02:38:25.557Z,100.00
2022-10-04T02:43:51.913Z,100.00
2022-10-04T02:49:20.416Z,100.00
2022-10-04T02:54:47.177Z,100.00
2022-10-04T02:59:52.007Z,100.00
2022-10-04T03:04:59.439Z,100.00
2022-10-04T03:10:07.441Z,100.00
2022-10-04T03:15:13.346Z,100.00
2022-10-04T03:20:21.407Z,100.00
2022-10-04T03:25:30.820Z,100.00
2022-10-04T03:30:36.720Z,100.00
2022-10-04T03:35:40.795Z,100.00
2022-10-04T03:40:51.938Z,100.00
2022-10-04T03:45:57.036Z,100.00
2022-10-04T03:51:03.263Z,100.00
2022-10-04T03:56:38.728Z,100.00
2022-10-04T04:01:51.610Z,100.00
2022-10-04T04:07:03.345Z,100.00
2022-10-04T04:12:21.437Z,100.00
2022-10-04T04:17:29.871Z,100.00
2022-10-04T04:22:33.621Z,100.00
2022-10-04T04:27:40.089Z,100.00
2022-10-04T04:32:49.470Z,100.00
2022-10-04T04:38:10.775Z,100.00
2022-10-04T04:43:21.153Z,100.00
2022-10-04T04:48:24.161Z,100.00
2022-10-04T04:53:29.318Z,100.00
2022-10-04T04:58:43.631Z,100.00
2022-10-04T05:04:00.544Z,100.00
2022-10-04T05:09:05.582Z,100.00
2022-10-04T05:14:11.554Z,100.00
2022-10-04T05:19:16.815Z,100.00
2022-10-04T05:24:26.372Z,100.00
2022-10-04T05:29:34.517Z,100.00
2022-10-04T05:34:42.856Z,100.00
2022-10-04T05:39:58.495Z,100.00
2022-10-04T05:45:01.543Z,100.00
2022-10-04T05:50:05.202Z,100.00
2022-10-04T05:55:27.123Z,100.00
2022-10-04T06:00:51.126Z,100.00
2022-10-04T06:05:57.688Z,100.00
2022-10-04T06:11:18.938Z,100.00
2022-10-04T06:16:21.874Z,100.00
2022-10-04T06:21:27.714Z,100.00
2022-10-04T06:26:44.034Z,100.00
2022-10-04T06:31:59.738Z,100.00
2022-10-04T06:37:09.913Z,100.00
2022-10-04T06:42:25.208Z,100.00
2022-10-04T06:47:43.780Z,100.00
2022-10-04T06:53:15.464Z,100.00
2022-10-04T06:58:44.398Z,100.00
2022-10-04T07:03:56.390Z,99.35
2022-10-04T07:09:05.754Z,98.16
2022-10-04T07:14:24.973Z,97.88
2022-10-04T07:19:39.427Z,96.85
2022-10-04T07:24:51.331Z,94.86
2022-10-04T07:30:00.496Z,93.39
2022-10-04T07:35:09.251Z,92.18
2022-10-04T07:40:34.033Z,90.94
2022-10-04T07:45:41.935Z,89.08
2022-10-04T07:51:23.100Z,83.51
2022-10-04T07:56:45.630Z,69.56
2022-10-04T08:02:27.745Z,61.46
2022-10-04T08:07:51.742Z,50.36
2022-10-04T08:13:22.436Z,49.05
2022-10-04T08:18:31.445Z,52.30
2022-10-04T08:23:44.977Z,56.88
2022-10-04T08:29:40.851Z,60.92
2022-10-04T08:35:16.621Z,64.44
2022-10-04T08:40:55.264Z,66.03
2022-10-04T08:46:31.598Z,66.83
2022-10-04T08:51:40.910Z,68.24
2022-10-04T08:56:43.858Z,67.74
2022-10-04T09:02:15.963Z,66.89
2022-10-04T09:07:30.790Z,63.84
2022-10-04T09:13:02.001Z,62.12
2022-10-04T09:18:51.348Z,61.45
2022-10-04T09:24:19.136Z,62.17
2022-10-04T09:29:34.227Z,61.59
2022-10-04T09:34:51.847Z,61.35
2022-10-04T09:40:26.220Z,61.26
2022-10-04T09:45:49.300Z,59.60
2022-10-04T09:51:17.083Z,47.77
2022-10-04T09:56:42.901Z,37.70
2022-10-04T10:02:11.241Z,33.17
2022-10-04T10:07:22.939Z,33.06
2022-10-04T10:13:12.228Z,35.45
2022-10-04T10:18:33.774Z,38.69
2022-10-04T10:24:12.108Z,40.81
2022-10-04T10:29:39.383Z,39.18
2022-10-04T10:35:00.418Z,34.15
2022-10-04T10:40:37.457Z,33.21
2022-10-04T10:46:08.011Z,38.69
2022-10-04T10:51:20.725Z,42.33
2022-10-04T10:56:47.873Z,44.64
2022-10-04T11:01:50.956Z,49.19
2022-10-04T11:07:20.726Z,52.50
2022-10-04T11:13:01.308Z,54.15
2022-10-04T11:18:42.316Z,54.05
2022-10-04T11:24:25.045Z,52.19
2022-10-04T11:29:31.142Z,47.69
2022-10-04T11:35:01.578Z,47.26
2022-10-04T11:40:07.248Z,48.32
2022-10-04T11:45:33.599Z,49.58
2022-10-04T11:51:12.549Z,50.05
2022-10-04T11:56:38.598Z,49.34
2022-10-04T12:02:16.625Z,48.40
2022-10-04T12:07:47.893Z,43.16
2022-10-04T12:12:54.072Z,43.15
2022-10-04T12:18:33.239Z,43.73
2022-10-04T12:23:54.361Z,42.40
2022-10-04T12:29:00.131Z,42.98
2022-10-04T12:34:15.193Z,41.49
2022-10-04T12:39:41.071Z,34.87
2022-10-04T12:44:43.870Z,31.48
2022-10-04T12:49:56.508Z,29.13
2022-10-04T12:55:23.671Z,31.98
2022-10-04T13:00:34.262Z,35.76
2022-10-04T13:06:03.277Z,34.76
2022-10-04T13:11:24.713Z,35.10
2022-10-04T13:22:56.320Z,34.94
2022-10-04T13:28:06.275Z,33.86
2022-10-04T13:33:40.341Z,32.88
2022-10-04T13:39:01.268Z,29.94
2022-10-04T13:44:41.759Z,29.16
2022-10-04T13:49:56.534Z,28.75
2022-10-04T13:55:24.321Z,28.90
2022-10-04T14:00:59.750Z,28.64
2022-10-04T14:06:30.050Z,28.54
2022-10-04T14:11:32.837Z,29.47
2022-10-04T14:16:50.719Z,30.29
2022-10-04T14:21:56.466Z,30.61
2022-10-04T14:27:28.554Z,32.03
2022-10-04T14:32:43.643Z,33.60
2022-10-04T14:38:01.885Z,35.19
2022-10-04T14:43:10.547Z,36.04
2022-10-04T14:48:28.711Z,36.67
2022-10-04T14:53:42.068Z,37.32
2022-10-04T14:59:29.410Z,38.14
2022-10-04T15:04:57.096Z,39.01
2022-10-04T15:10:22.534Z,39.72
2022-10-04T15:15:40.965Z,40.85
2022-10-04T15:20:54.445Z,41.77
2022-10-04T15:26:13.177Z,42.40
2022-10-04T15:31:28.674Z,43.23
2022-10-04T15:36:39.718Z,45.17
2022-10-04T15:42:25.117Z,46.51
2022-10-04T15:47:57.111Z,48.62
2022-10-04T15:53:45.894Z,50.78
2022-10-04T15:59:28.624Z,52.87
2022-10-04T16:04:32.763Z,54.98
2022-10-04T16:09:41.497Z,56.38
2022-10-04T16:15:21.063Z,57.36
2022-10-04T16:20:43.216Z,58.56
2022-10-04T16:25:48.173Z,59.69
2022-10-04T16:31:20.351Z,60.80
2022-10-04T16:36:28.561Z,62.23
2022-10-04T16:41:41.570Z,63.33
2022-10-04T16:46:46.449Z,64.51
2022-10-04T16:52:03.003Z,65.54
2022-10-04T16:57:13.900Z,66.92
2022-10-04T17:03:04.213Z,68.20
2022-10-04T17:08:15.825Z,69.70
2022-10-04T17:13:46.169Z,70.61
2022-10-04T17:18:48.963Z,71.48
2022-10-04T17:24:08.976Z,72.04
2022-10-04T17:29:38.401Z,72.88
2022-10-04T17:34:59.782Z,73.68
2022-10-04T17:40:12.575Z,74.74
2022-10-04T17:45:41.080Z,75.42
2022-10-04T17:51:23.513Z,76.00
2022-10-04T17:56:45.188Z,76.55
2022-10-04T18:02:00.299Z,77.25
2022-10-04T18:07:16.342Z,77.87
2022-10-04T18:12:30.454Z,78.32
2022-10-04T18:17:41.111Z,78.84
2022-10-04T18:22:50.067Z,79.57
2022-10-04T18:28:08.102Z,79.91
2022-10-04T18:33:16.291Z,80.30
2022-10-04T18:38:28.975Z,80.81
2022-10-04T18:43:49.679Z,81.39
2022-10-04T18:49:00.105Z,82.03
2022-10-04T18:54:34.629Z,82.09
2022-10-04T19:00:03.042Z,82.10
2022-10-04T19:05:05.935Z,81.98
2022-10-04T19:10:20.823Z,82.27
2022-10-04T19:15:50.173Z,82.90
2022-10-04T19:21:04.926Z,82.88
2022-10-04T19:26:37.669Z,82.96
2022-10-04T19:32:01.536Z,83.39
2022-10-04T19:37:10.574Z,83.74
2022-10-04T19:42:36.621Z,84.05
2022-10-04T19:47:49.047Z,84.28
2022-10-04T19:52:59.737Z,84.62
2022-10-04T19:58:19.537Z,84.71
2022-10-04T20:03:22.747Z,85.07
2022-10-04T20:09:01.529Z,85.49
2022-10-04T20:14:05.317Z,85.63
2022-10-04T20:19:19.490Z,85.85
2022-10-04T20:24:37.653Z,86.09
2022-10-04T20:29:40.467Z,86.50
2022-10-04T20:34:43.252Z,87.01
2022-10-04T20:39:46.259Z,87.43
2022-10-04T20:44:56.204Z,87.66
2022-10-04T20:50:00.104Z,87.78
2022-10-04T20:55:15.763Z,87.82
2022-10-04T21:00:21.467Z,87.73
2022-10-04T21:05:25.010Z,87.53
2022-10-04T21:10:28.775Z,87.31
2022-10-04T21:15:31.678Z,87.22
2022-10-04T21:20:45.027Z,86.97
2022-10-04T21:25:47.930Z,86.90
2022-10-04T21:30:50.732Z,86.95
2022-10-04T21:35:53.538Z,86.86
2022-10-04T21:40:56.950Z,87.02
2022-10-04T21:46:00.025Z,87.04
2022-10-04T21:51:03.372Z,87.00
2022-10-04T21:56:08.021Z,86.93
2022-10-04T22:01:11.182Z,86.95
2022-10-04T22:06:14.133Z,86.98
2022-10-04T22:11:17.244Z,86.79
2022-10-04T22:16:20.110Z,87.07
2022-10-04T22:21:23.154Z,87.17
2022-10-04T22:26:26.953Z,87.13
2022-10-04T22:31:30.207Z,87.22
2022-10-04T22:36:37.915Z,87.47
2022-10-04T22:41:47.434Z,87.79
2022-10-04T22:46:55.698Z,87.95
2022-10-04T22:52:01.069Z,88.21
2022-10-04T22:57:04.070Z,88.18
2022-10-04T23:02:15.064Z,88.34
2022-10-04T23:07:19.139Z,88.42
2022-10-04T23:12:22.098Z,88.65
2022-10-04T23:17:25.820Z,88.74
2022-10-04T23:22:30.752Z,89.10
2022-10-04T23:27:34.497Z,89.61
2022-10-04T23:32:37.401Z,89.53
2022-10-04T23:37:40.407Z,89.49
2022-10-04T23:42:43.353Z,89.75
2022-10-04T23:47:49.903Z,89.76
2022-10-04T23:52:58.210Z,89.88
2022-10-04T23:58:01.444Z,89.89
